sensor_id;sensor_type;location;lat;lon;timestamp;temperature;humidity
79467;SHT30;68933;49.726;9.226;2023-07-08T00:00:38;20.2;51
79467;SHT30;68933;49.726;9.226;2023-07-08T00:02:51;20.1;51
79467;SHT30;68933;49.726;9.226;2023-07-08T00:05:04;20.1;51
79467;SHT30;68933;49.726;9.226;2023-07-08T00:07:17;20.1;51
79467;SHT30;68933;49.726;9.226;2023-07-08T00:09:30;20;51
79467;SHT30;68933;49.726;9.226;2023-07-08T00:11:42;20;51
79467;SHT30;68933;49.726;9.226;2023-07-08T00:13:56;20;51
79467;SHT30;68933;49.726;9.226;2023-07-08T00:16:09;20;51
79467;SHT30;68933;49.726;9.226;2023-07-08T00:18:22;20;51
79467;SHT30;68933;49.726;9.226;2023-07-08T00:20:35;20;51
79467;SHT30;68933;49.726;9.226;2023-07-08T00:22:48;19.9;51
79467;SHT30;68933;49.726;9.226;2023-07-08T00:25:00;19.9;51
79467;SHT30;68933;49.726;9.226;2023-07-08T00:27:13;19.9;51
79467;SHT30;68933;49.726;9.226;2023-07-08T00:29:26;19.8;51
79467;SHT30;68933;49.726;9.226;2023-07-08T00:31:40;19.8;51
79467;SHT30;68933;49.726;9.226;2023-07-08T00:33:53;19.7;53
79467;SHT30;68933;49.726;9.226;2023-07-08T00:36:08;19.7;53
79467;SHT30;68933;49.726;9.226;2023-07-08T00:38:19;19.5;53
79467;SHT30;68933;49.726;9.226;2023-07-08T00:40:32;19.5;53
79467;SHT30;68933;49.726;9.226;2023-07-08T00:42:44;19.3;53
79467;SHT30;68933;49.726;9.226;2023-07-08T00:44:57;19.3;53
79467;SHT30;68933;49.726;9.226;2023-07-08T00:47:11;19.3;53
79467;SHT30;68933;49.726;9.226;2023-07-08T00:49:26;19.3;54
79467;SHT30;68933;49.726;9.226;2023-07-08T00:51:37;19.3;54
79467;SHT30;68933;49.726;9.226;2023-07-08T00:53:49;19.2;54
79467;SHT30;68933;49.726;9.226;2023-07-08T00:56:03;19.2;54
79467;SHT30;68933;49.726;9.226;2023-07-08T00:58:16;19.2;53
79467;SHT30;68933;49.726;9.226;2023-07-08T01:00:28;19.2;53
79467;SHT30;68933;49.726;9.226;2023-07-08T01:02:42;19.1;53
79467;SHT30;68933;49.726;9.226;2023-07-08T01:04:56;19.1;53
79467;SHT30;68933;49.726;9.226;2023-07-08T01:07:07;19;53
79467;SHT30;68933;49.726;9.226;2023-07-08T01:09:20;19;53
79467;SHT30;68933;49.726;9.226;2023-07-08T01:11:33;19;53
79467;SHT30;68933;49.726;9.226;2023-07-08T01:13:46;18.9;54
79467;SHT30;68933;49.726;9.226;2023-07-08T01:15:59;18.9;54
79467;SHT30;68933;49.726;9.226;2023-07-08T01:18:13;18.8;54
79467;SHT30;68933;49.726;9.226;2023-07-08T01:20:25;18.8;54
79467;SHT30;68933;49.726;9.226;2023-07-08T01:22:39;18.8;54
79467;SHT30;68933;49.726;9.226;2023-07-08T01:24:51;18.8;54
79467;SHT30;68933;49.726;9.226;2023-07-08T01:27:05;18.7;54
79467;SHT30;68933;49.726;9.226;2023-07-08T01:29:17;18.7;54
79467;SHT30;68933;49.726;9.226;2023-07-08T01:31:30;18.7;54
79467;SHT30;68933;49.726;9.226;2023-07-08T01:33:44;18.6;54
79467;SHT30;68933;49.726;9.226;2023-07-08T01:35:56;18.6;54
79467;SHT30;68933;49.726;9.226;2023-07-08T01:38:10;18.5;55
79467;SHT30;68933;49.726;9.226;2023-07-08T01:40:26;18.5;55
79467;SHT30;68933;49.726;9.226;2023-07-08T01:42:36;18.5;55
79467;SHT30;68933;49.726;9.226;2023-07-08T01:44:48;18.5;55
79467;SHT30;68933;49.726;9.226;2023-07-08T01:47:02;18.5;55
79467;SHT30;68933;49.726;9.226;2023-07-08T01:49:15;18.4;55
79467;SHT30;68933;49.726;9.226;2023-07-08T01:51:28;18.4;55
79467;SHT30;68933;49.726;9.226;2023-07-08T01:53:41;18.4;55
79467;SHT30;68933;49.726;9.226;2023-07-08T01:55:53;18.3;55
79467;SHT30;68933;49.726;9.226;2023-07-08T01:58:06;18.3;55
79467;SHT30;68933;49.726;9.226;2023-07-08T02:00:20;18.2;55
79467;SHT30;68933;49.726;9.226;2023-07-08T02:02:33;18.2;55
79467;SHT30;68933;49.726;9.226;2023-07-08T02:04:45;18.1;55
79467;SHT30;68933;49.726;9.226;2023-07-08T02:06:59;18.1;55
79467;SHT30;68933;49.726;9.226;2023-07-08T02:09:12;18.1;55
79467;SHT30;68933;49.726;9.226;2023-07-08T02:11:25;18.1;55
79467;SHT30;68933;49.726;9.226;2023-07-08T02:13:37;18.1;55
79467;SHT30;68933;49.726;9.226;2023-07-08T02:15:51;18.1;55
79467;SHT30;68933;49.726;9.226;2023-07-08T02:18:04;18.1;55
79467;SHT30;68933;49.726;9.226;2023-07-08T02:20:16;18.1;55
79467;SHT30;68933;49.726;9.226;2023-07-08T02:22:30;18.1;55
79467;SHT30;68933;49.726;9.226;2023-07-08T02:24:43;18.1;55
79467;SHT30;68933;49.726;9.226;2023-07-08T02:26:55;18;55
79467;SHT30;68933;49.726;9.226;2023-07-08T02:29:08;18;55
79467;SHT30;68933;49.726;9.226;2023-07-08T02:31:22;18;55
79467;SHT30;68933;49.726;9.226;2023-07-08T02:33:34;17.9;55
79467;SHT30;68933;49.726;9.226;2023-07-08T02:35:47;17.9;55
79467;SHT30;68933;49.726;9.226;2023-07-08T02:38:00;17.9;57
79467;SHT30;68933;49.726;9.226;2023-07-08T02:40:14;17.9;57
79467;SHT30;68933;49.726;9.226;2023-07-08T02:42:26;17.7;57
79467;SHT30;68933;49.726;9.226;2023-07-08T02:44:39;17.7;57
79467;SHT30;68933;49.726;9.226;2023-07-08T02:46:53;17.7;57
79467;SHT30;68933;49.726;9.226;2023-07-08T02:49:06;17.6;57
79467;SHT30;68933;49.726;9.226;2023-07-08T02:51:18;17.6;57
79467;SHT30;68933;49.726;9.226;2023-07-08T02:53:32;17.6;57
79467;SHT30;68933;49.726;9.226;2023-07-08T02:55:45;17.6;57
79467;SHT30;68933;49.726;9.226;2023-07-08T02:57:57;17.5;57
79467;SHT30;68933;49.726;9.226;2023-07-08T03:00:11;17.5;57
79467;SHT30;68933;49.726;9.226;2023-07-08T03:02:24;17.5;57
79467;SHT30;68933;49.726;9.226;2023-07-08T03:04:36;17.4;57
79467;SHT30;68933;49.726;9.226;2023-07-08T03:06:50;17.4;57
79467;SHT30;68933;49.726;9.226;2023-07-08T03:09:03;17.4;58
79467;SHT30;68933;49.726;9.226;2023-07-08T03:11:16;17.4;58
79467;SHT30;68933;49.726;9.226;2023-07-08T03:13:29;17.4;57
79467;SHT30;68933;49.726;9.226;2023-07-08T03:15:44;17.4;57
79467;SHT30;68933;49.726;9.226;2023-07-08T03:17:54;17.4;57
79467;SHT30;68933;49.726;9.226;2023-07-08T03:20:08;17.4;58
79467;SHT30;68933;49.726;9.226;2023-07-08T03:22:20;17.4;58
79467;SHT30;68933;49.726;9.226;2023-07-08T03:24:34;17.3;58
79467;SHT30;68933;49.726;9.226;2023-07-08T03:26:47;17.3;58
79467;SHT30;68933;49.726;9.226;2023-07-08T03:29:00;17.2;58
79467;SHT30;68933;49.726;9.226;2023-07-08T03:31:13;17.2;58
79467;SHT30;68933;49.726;9.226;2023-07-08T03:33:26;17.1;58
79467;SHT30;68933;49.726;9.226;2023-07-08T03:35:39;17.1;58
79467;SHT30;68933;49.726;9.226;2023-07-08T03:37:52;17;58
79467;SHT30;68933;49.726;9.226;2023-07-08T03:40:07;17;58
79467;SHT30;68933;49.726;9.226;2023-07-08T03:42:18;17;58
79467;SHT30;68933;49.726;9.226;2023-07-08T03:44:31;16.9;58
79467;SHT30;68933;49.726;9.226;2023-07-08T03:46:44;16.9;58
79467;SHT30;68933;49.726;9.226;2023-07-08T03:48:56;16.9;58
79467;SHT30;68933;49.726;9.226;2023-07-08T03:51:10;16.9;58
79467;SHT30;68933;49.726;9.226;2023-07-08T03:53:23;17;58
79467;SHT30;68933;49.726;9.226;2023-07-08T03:55:36;17;58
79467;SHT30;68933;49.726;9.226;2023-07-08T03:57:49;17;58
79467;SHT30;68933;49.726;9.226;2023-07-08T04:00:02;17;58
79467;SHT30;68933;49.726;9.226;2023-07-08T04:02:15;17;58
79467;SHT30;68933;49.726;9.226;2023-07-08T04:04:28;16.9;58
79467;SHT30;68933;49.726;9.226;2023-07-08T04:06:41;16.9;58
79467;SHT30;68933;49.726;9.226;2023-07-08T04:08:54;16.9;58
79467;SHT30;68933;49.726;9.226;2023-07-08T04:11:08;16.9;58
79467;SHT30;68933;49.726;9.226;2023-07-08T04:13:20;16.9;58
79467;SHT30;68933;49.726;9.226;2023-07-08T04:15:32;16.9;58
79467;SHT30;68933;49.726;9.226;2023-07-08T04:17:46;16.8;59
79467;SHT30;68933;49.726;9.226;2023-07-08T04:19:59;16.8;59
79467;SHT30;68933;49.726;9.226;2023-07-08T04:22:12;16.8;59
79467;SHT30;68933;49.726;9.226;2023-07-08T04:24:25;16.8;59
79467;SHT30;68933;49.726;9.226;2023-07-08T04:26:38;16.8;59
79467;SHT30;68933;49.726;9.226;2023-07-08T04:28:51;16.7;59
79467;SHT30;68933;49.726;9.226;2023-07-08T04:31:04;16.7;59
79467;SHT30;68933;49.726;9.226;2023-07-08T04:33:17;16.7;60
79467;SHT30;68933;49.726;9.226;2023-07-08T04:35:30;16.7;60
79467;SHT30;68933;49.726;9.226;2023-07-08T04:37:43;16.7;60
79467;SHT30;68933;49.726;9.226;2023-07-08T04:39:56;16.7;60
79467;SHT30;68933;49.726;9.226;2023-07-08T04:42:09;16.7;60
79467;SHT30;68933;49.726;9.226;2023-07-08T04:44:22;16.7;60
79467;SHT30;68933;49.726;9.226;2023-07-08T04:46:35;16.7;60
79467;SHT30;68933;49.726;9.226;2023-07-08T04:48:48;16.7;60
79467;SHT30;68933;49.726;9.226;2023-07-08T04:51:01;16.7;60
79467;SHT30;68933;49.726;9.226;2023-07-08T04:53:14;16.8;59
79467;SHT30;68933;49.726;9.226;2023-07-08T04:55:27;16.8;59
79467;SHT30;68933;49.726;9.226;2023-07-08T04:57:40;16.9;59
79467;SHT30;68933;49.726;9.226;2023-07-08T04:59:53;16.9;59
79467;SHT30;68933;49.726;9.226;2023-07-08T05:02:06;16.9;59
79467;SHT30;68933;49.726;9.226;2023-07-08T05:04:19;17;59
79467;SHT30;68933;49.726;9.226;2023-07-08T05:06:32;17;59
79467;SHT30;68933;49.726;9.226;2023-07-08T05:08:45;17;58
79467;SHT30;68933;49.726;9.226;2023-07-08T05:10:57;17;58
79467;SHT30;68933;49.726;9.226;2023-07-08T05:13:11;17;58
79467;SHT30;68933;49.726;9.226;2023-07-08T05:15:24;17.1;58
79467;SHT30;68933;49.726;9.226;2023-07-08T05:17:37;17.1;58
79467;SHT30;68933;49.726;9.226;2023-07-08T05:19:50;17.2;58
79467;SHT30;68933;49.726;9.226;2023-07-08T05:22:03;17.2;58
79467;SHT30;68933;49.726;9.226;2023-07-08T05:24:16;17.2;58
79467;SHT30;68933;49.726;9.226;2023-07-08T05:26:29;17.4;57
79467;SHT30;68933;49.726;9.226;2023-07-08T05:28:42;17.4;57
79467;SHT30;68933;49.726;9.226;2023-07-08T05:30:55;17.4;57
79467;SHT30;68933;49.726;9.226;2023-07-08T05:33:08;17.4;57
79467;SHT30;68933;49.726;9.226;2023-07-08T05:35:21;17.6;57
79467;SHT30;68933;49.726;9.226;2023-07-08T05:37:34;17.6;57
79467;SHT30;68933;49.726;9.226;2023-07-08T05:39:47;17.6;57
79467;SHT30;68933;49.726;9.226;2023-07-08T05:42:00;17.8;57
79467;SHT30;68933;49.726;9.226;2023-07-08T05:44:13;17.8;57
79467;SHT30;68933;49.726;9.226;2023-07-08T05:46:26;17.9;57
79467;SHT30;68933;49.726;9.226;2023-07-08T05:48:39;17.9;57
79467;SHT30;68933;49.726;9.226;2023-07-08T05:50:52;18.1;57
79467;SHT30;68933;49.726;9.226;2023-07-08T05:53:05;18.1;57
79467;SHT30;68933;49.726;9.226;2023-07-08T05:55:18;18.1;57
79467;SHT30;68933;49.726;9.226;2023-07-08T05:57:31;18.4;55
79467;SHT30;68933;49.726;9.226;2023-07-08T05:59:44;18.4;55
79467;SHT30;68933;49.726;9.226;2023-07-08T06:01:57;18.5;55
79467;SHT30;68933;49.726;9.226;2023-07-08T06:04:10;18.5;55
79467;SHT30;68933;49.726;9.226;2023-07-08T06:06:23;18.8;55
79467;SHT30;68933;49.726;9.226;2023-07-08T06:08:36;18.8;55
79467;SHT30;68933;49.726;9.226;2023-07-08T06:10:49;18.8;55
79467;SHT30;68933;49.726;9.226;2023-07-08T06:13:02;19.2;54
79467;SHT30;68933;49.726;9.226;2023-07-08T06:15:15;19.2;54
79467;SHT30;68933;49.726;9.226;2023-07-08T06:17:28;19.5;54
79467;SHT30;68933;49.726;9.226;2023-07-08T06:19:41;19.5;54
79467;SHT30;68933;49.726;9.226;2023-07-08T06:21:54;19.7;54
79467;SHT30;68933;49.726;9.226;2023-07-08T06:24:07;19.7;54
79467;SHT30;68933;49.726;9.226;2023-07-08T06:26:20;19.7;54
79467;SHT30;68933;49.726;9.226;2023-07-08T06:28:33;20.2;51
79467;SHT30;68933;49.726;9.226;2023-07-08T06:30:46;20.2;51
79467;SHT30;68933;49.726;9.226;2023-07-08T06:32:59;20.6;50
79467;SHT30;68933;49.726;9.226;2023-07-08T06:35:12;20.6;50
79467;SHT30;68933;49.726;9.226;2023-07-08T06:37:25;20.8;50
79467;SHT30;68933;49.726;9.226;2023-07-08T06:39:37;20.8;50
79467;SHT30;68933;49.726;9.226;2023-07-08T06:41:51;21.1;49
79467;SHT30;68933;49.726;9.226;2023-07-08T06:44:04;21.1;49
79467;SHT30;68933;49.726;9.226;2023-07-08T06:46:17;21.3;49
79467;SHT30;68933;49.726;9.226;2023-07-08T06:48:30;21.3;49
79467;SHT30;68933;49.726;9.226;2023-07-08T06:50:45;21.3;49
79467;SHT30;68933;49.726;9.226;2023-07-08T06:52:56;21.7;49
79467;SHT30;68933;49.726;9.226;2023-07-08T06:55:10;21.7;49
79467;SHT30;68933;49.726;9.226;2023-07-08T06:57:22;21.9;47
79467;SHT30;68933;49.726;9.226;2023-07-08T06:59:35;21.9;47
79467;SHT30;68933;49.726;9.226;2023-07-08T07:01:48;22.1;47
79467;SHT30;68933;49.726;9.226;2023-07-08T07:04:01;22.1;47
79467;SHT30;68933;49.726;9.226;2023-07-08T07:06:14;22.1;47
79467;SHT30;68933;49.726;9.226;2023-07-08T07:08:27;22.6;46
79467;SHT30;68933;49.726;9.226;2023-07-08T07:10:40;22.6;46
79467;SHT30;68933;49.726;9.226;2023-07-08T07:12:53;23.1;46
79467;SHT30;68933;49.726;9.226;2023-07-08T07:15:06;23.1;46
79467;SHT30;68933;49.726;9.226;2023-07-08T07:17:19;23.3;45
79467;SHT30;68933;49.726;9.226;2023-07-08T07:19:32;23.3;45
79467;SHT30;68933;49.726;9.226;2023-07-08T07:21:44;23.5;45
79467;SHT30;68933;49.726;9.226;2023-07-08T07:23:58;23.5;45
79467;SHT30;68933;49.726;9.226;2023-07-08T07:26:11;23.5;45
79467;SHT30;68933;49.726;9.226;2023-07-08T07:28:24;23.5;45
79467;SHT30;68933;49.726;9.226;2023-07-08T07:30:37;23.7;42
79467;SHT30;68933;49.726;9.226;2023-07-08T07:32:50;23.7;42
79467;SHT30;68933;49.726;9.226;2023-07-08T07:35:03;23.7;42
79467;SHT30;68933;49.726;9.226;2023-07-08T07:37:16;23.7;42
79467;SHT30;68933;49.726;9.226;2023-07-08T07:39:29;23.8;42
79467;SHT30;68933;49.726;9.226;2023-07-08T07:41:42;23.8;42
79467;SHT30;68933;49.726;9.226;2023-07-08T07:43:54;23.8;42
79467;SHT30;68933;49.726;9.226;2023-07-08T07:46:08;24;42
79467;SHT30;68933;49.726;9.226;2023-07-08T07:48:21;24;42
79467;SHT30;68933;49.726;9.226;2023-07-08T07:50:34;24;42
79467;SHT30;68933;49.726;9.226;2023-07-08T07:52:47;24.4;42
79467;SHT30;68933;49.726;9.226;2023-07-08T07:55:00;24.4;42
79467;SHT30;68933;49.726;9.226;2023-07-08T07:57:13;24.7;42
79467;SHT30;68933;49.726;9.226;2023-07-08T07:59:26;24.7;42
79467;SHT30;68933;49.726;9.226;2023-07-08T08:01:39;24.7;42
79467;SHT30;68933;49.726;9.226;2023-07-08T08:03:52;24.7;42
79467;SHT30;68933;49.726;9.226;2023-07-08T08:06:05;24.7;42
79467;SHT30;68933;49.726;9.226;2023-07-08T08:08:18;25.7;39
79467;SHT30;68933;49.726;9.226;2023-07-08T08:10:31;25.7;39
79467;SHT30;68933;49.726;9.226;2023-07-08T08:12:44;26.4;39
79467;SHT30;68933;49.726;9.226;2023-07-08T08:14:57;26.4;39
79467;SHT30;68933;49.726;9.226;2023-07-08T08:17:10;26.4;39
79467;SHT30;68933;49.726;9.226;2023-07-08T08:19:23;26.9;38
79467;SHT30;68933;49.726;9.226;2023-07-08T08:21:36;26.9;38
79467;SHT30;68933;49.726;9.226;2023-07-08T08:23:49;27.1;37
79467;SHT30;68933;49.726;9.226;2023-07-08T08:26:02;27.1;37
79467;SHT30;68933;49.726;9.226;2023-07-08T08:28:15;27.6;35
79467;SHT30;68933;49.726;9.226;2023-07-08T08:30:28;27.6;35
79467;SHT30;68933;49.726;9.226;2023-07-08T08:32:40;27.6;35
79467;SHT30;68933;49.726;9.226;2023-07-08T08:34:54;28;37
79467;SHT30;68933;49.726;9.226;2023-07-08T08:37:07;28;37
79467;SHT30;68933;49.726;9.226;2023-07-08T08:39:20;28.2;35
79467;SHT30;68933;49.726;9.226;2023-07-08T08:41:34;28.2;35
79467;SHT30;68933;49.726;9.226;2023-07-08T08:43:46;28.7;35
79467;SHT30;68933;49.726;9.226;2023-07-08T08:46:00;28.7;35
79467;SHT30;68933;49.726;9.226;2023-07-08T08:48:13;29.2;34
79467;SHT30;68933;49.726;9.226;2023-07-08T08:50:29;29.2;34
79467;SHT30;68933;49.726;9.226;2023-07-08T08:52:38;29.4;34
79467;SHT30;68933;49.726;9.226;2023-07-08T08:54:51;29.4;34
79467;SHT30;68933;49.726;9.226;2023-07-08T08:57:06;29.4;34
79467;SHT30;68933;49.726;9.226;2023-07-08T08:59:18;29.8;33
79467;SHT30;68933;49.726;9.226;2023-07-08T09:01:30;29.8;33
79467;SHT30;68933;49.726;9.226;2023-07-08T09:03:44;29.9;34
79467;SHT30;68933;49.726;9.226;2023-07-08T09:05:56;29.9;34
79467;SHT30;68933;49.726;9.226;2023-07-08T09:08:10;30.2;33
79467;SHT30;68933;49.726;9.226;2023-07-08T09:10:25;30.2;33
79467;SHT30;68933;49.726;9.226;2023-07-08T09:12:35;30.4;31
79467;SHT30;68933;49.726;9.226;2023-07-08T09:14:48;30.4;31
79467;SHT30;68933;49.726;9.226;2023-07-08T09:17:05;30.4;31
79467;SHT30;68933;49.726;9.226;2023-07-08T09:19:14;30.6;31
79467;SHT30;68933;49.726;9.226;2023-07-08T09:21:28;30.6;31
79467;SHT30;68933;49.726;9.226;2023-07-08T09:23:40;31;31
79467;SHT30;68933;49.726;9.226;2023-07-08T09:25:54;31;31
79467;SHT30;68933;49.726;9.226;2023-07-08T09:28:06;31.2;31
79467;SHT30;68933;49.726;9.226;2023-07-08T09:30:20;31.2;31
79467;SHT30;68933;49.726;9.226;2023-07-08T09:32:32;31.6;31
79467;SHT30;68933;49.726;9.226;2023-07-08T09:34:46;31.6;31
79467;SHT30;68933;49.726;9.226;2023-07-08T09:36:58;31.6;31
79467;SHT30;68933;49.726;9.226;2023-07-08T09:39:11;31.8;30
79467;SHT30;68933;49.726;9.226;2023-07-08T09:41:32;31.8;30
79467;SHT30;68933;49.726;9.226;2023-07-08T09:43:37;31.9;30
79467;SHT30;68933;49.726;9.226;2023-07-08T09:45:50;31.9;30
79467;SHT30;68933;49.726;9.226;2023-07-08T09:48:03;32.2;30
79467;SHT30;68933;49.726;9.226;2023-07-08T09:50:16;32.2;30
79467;SHT30;68933;49.726;9.226;2023-07-08T09:52:29;32.2;30
79467;SHT30;68933;49.726;9.226;2023-07-08T09:54:42;32.2;30
79467;SHT30;68933;49.726;9.226;2023-07-08T09:56:58;32.4;29
79467;SHT30;68933;49.726;9.226;2023-07-08T09:59:09;32.4;29
79467;SHT30;68933;49.726;9.226;2023-07-08T10:01:22;32.6;29
79467;SHT30;68933;49.726;9.226;2023-07-08T10:03:34;32.6;29
79467;SHT30;68933;49.726;9.226;2023-07-08T10:05:47;32.6;29
79467;SHT30;68933;49.726;9.226;2023-07-08T10:08:00;32.8;29
79467;SHT30;68933;49.726;9.226;2023-07-08T10:10:13;32.8;29
79467;SHT30;68933;49.726;9.226;2023-07-08T10:12:26;32.8;29
79467;SHT30;68933;49.726;9.226;2023-07-08T10:14:39;33.1;29
79467;SHT30;68933;49.726;9.226;2023-07-08T10:16:52;33.1;29
79467;SHT30;68933;49.726;9.226;2023-07-08T10:19:09;33.4;29
79467;SHT30;68933;49.726;9.226;2023-07-08T10:21:21;33.4;29
79467;SHT30;68933;49.726;9.226;2023-07-08T10:23:34;33.7;29
79467;SHT30;68933;49.726;9.226;2023-07-08T10:25:45;33.7;29
79467;SHT30;68933;49.726;9.226;2023-07-08T10:27:57;33.7;29
79467;SHT30;68933;49.726;9.226;2023-07-08T10:30:14;34.1;29
79467;SHT30;68933;49.726;9.226;2023-07-08T10:32:24;34.1;29
79467;SHT30;68933;49.726;9.226;2023-07-08T10:34:37;34.1;29
79467;SHT30;68933;49.726;9.226;2023-07-08T10:36:49;34.1;29
79467;SHT30;68933;49.726;9.226;2023-07-08T10:39:09;34.6;27
79467;SHT30;68933;49.726;9.226;2023-07-08T10:41:17;34.6;27
79467;SHT30;68933;49.726;9.226;2023-07-08T10:43:31;34.6;27
79467;SHT30;68933;49.726;9.226;2023-07-08T10:45:43;35;26
79467;SHT30;68933;49.726;9.226;2023-07-08T10:47:57;35;26
79467;SHT30;68933;49.726;9.226;2023-07-08T10:50:11;35;26
79467;SHT30;68933;49.726;9.226;2023-07-08T10:52:24;35.4;26
79467;SHT30;68933;49.726;9.226;2023-07-08T10:54:38;35.4;26
79467;SHT30;68933;49.726;9.226;2023-07-08T10:56:47;35.6;26
79467;SHT30;68933;49.726;9.226;2023-07-08T10:59:34;35.6;26
79467;SHT30;68933;49.726;9.226;2023-07-08T11:01:14;35.9;26
79467;SHT30;68933;49.726;9.226;2023-07-08T11:03:51;35.9;26
79467;SHT30;68933;49.726;9.226;2023-07-08T11:05:39;36.3;26
79467;SHT30;68933;49.726;9.226;2023-07-08T11:07:52;36.3;26
79467;SHT30;68933;49.726;9.226;2023-07-08T11:10:05;36.3;26
79467;SHT30;68933;49.726;9.226;2023-07-08T11:12:19;36.4;25
79467;SHT30;68933;49.726;9.226;2023-07-08T11:14:30;36.4;25
79467;SHT30;68933;49.726;9.226;2023-07-08T11:16:43;36.5;25
79467;SHT30;68933;49.726;9.226;2023-07-08T11:18:56;36.5;25
79467;SHT30;68933;49.726;9.226;2023-07-08T11:21:09;36.6;25
79467;SHT30;68933;49.726;9.226;2023-07-08T11:23:23;36.6;25
79467;SHT30;68933;49.726;9.226;2023-07-08T11:25:35;36.6;25
79467;SHT30;68933;49.726;9.226;2023-07-08T11:27:48;36.6;25
79467;SHT30;68933;49.726;9.226;2023-07-08T11:30:02;36.6;25
79467;SHT30;68933;49.726;9.226;2023-07-08T11:32:14;37;25
79467;SHT30;68933;49.726;9.226;2023-07-08T11:34:26;37;25
79467;SHT30;68933;49.726;9.226;2023-07-08T11:36:40;37;25
79467;SHT30;68933;49.726;9.226;2023-07-08T11:38:53;37;25
79467;SHT30;68933;49.726;9.226;2023-07-08T11:41:11;37.4;25
79467;SHT30;68933;49.726;9.226;2023-07-08T11:43:19;37.4;25
79467;SHT30;68933;49.726;9.226;2023-07-08T11:45:32;37.5;25
79467;SHT30;68933;49.726;9.226;2023-07-08T11:47:45;37.5;25
79467;SHT30;68933;49.726;9.226;2023-07-08T11:49:58;37.6;23
79467;SHT30;68933;49.726;9.226;2023-07-08T11:52:12;37.6;23
79467;SHT30;68933;49.726;9.226;2023-07-08T11:54:26;37.6;23
79467;SHT30;68933;49.726;9.226;2023-07-08T11:56:46;37.7;23
79467;SHT30;68933;49.726;9.226;2023-07-08T11:58:52;37.7;23
79467;SHT30;68933;49.726;9.226;2023-07-08T12:01:03;37.9;23
79467;SHT30;68933;49.726;9.226;2023-07-08T12:03:18;37.9;23
79467;SHT30;68933;49.726;9.226;2023-07-08T12:05:30;38.1;23
79467;SHT30;68933;49.726;9.226;2023-07-08T12:07:42;38.1;23
79467;SHT30;68933;49.726;9.226;2023-07-08T12:09:56;38.4;23
79467;SHT30;68933;49.726;9.226;2023-07-08T12:12:13;38.4;23
79467;SHT30;68933;49.726;9.226;2023-07-08T12:14:21;38.4;23
79467;SHT30;68933;49.726;9.226;2023-07-08T12:16:34;38.6;22
79467;SHT30;68933;49.726;9.226;2023-07-08T12:18:47;38.6;22
79467;SHT30;68933;49.726;9.226;2023-07-08T12:21:00;38.5;22
79467;SHT30;68933;49.726;9.226;2023-07-08T12:23:13;38.5;22
79467;SHT30;68933;49.726;9.226;2023-07-08T12:25:28;38.5;22
79467;SHT30;68933;49.726;9.226;2023-07-08T12:27:39;38.7;23
79467;SHT30;68933;49.726;9.226;2023-07-08T12:29:52;38.7;23
79467;SHT30;68933;49.726;9.226;2023-07-08T12:32:05;38.9;22
79467;SHT30;68933;49.726;9.226;2023-07-08T12:34:18;38.9;22
79467;SHT30;68933;49.726;9.226;2023-07-08T12:36:31;38.9;22
79467;SHT30;68933;49.726;9.226;2023-07-08T12:38:44;39.2;22
79467;SHT30;68933;49.726;9.226;2023-07-08T12:40:57;39.2;22
79467;SHT30;68933;49.726;9.226;2023-07-08T12:43:10;39.3;22
79467;SHT30;68933;49.726;9.226;2023-07-08T12:45:23;39.3;22
79467;SHT30;68933;49.726;9.226;2023-07-08T12:47:36;39.6;22
79467;SHT30;68933;49.726;9.226;2023-07-08T12:49:49;39.6;22
79467;SHT30;68933;49.726;9.226;2023-07-08T12:52:02;39.6;22
79467;SHT30;68933;49.726;9.226;2023-07-08T12:54:15;39.5;21
79467;SHT30;68933;49.726;9.226;2023-07-08T12:56:28;39.5;21
79467;SHT30;68933;49.726;9.226;2023-07-08T12:58:41;39.5;22
79467;SHT30;68933;49.726;9.226;2023-07-08T13:00:54;39.5;22
79467;SHT30;68933;49.726;9.226;2023-07-08T13:03:08;39.5;22
79467;SHT30;68933;49.726;9.226;2023-07-08T13:05:20;39.7;22
79467;SHT30;68933;49.726;9.226;2023-07-08T13:07:34;39.7;22
79467;SHT30;68933;49.726;9.226;2023-07-08T13:09:46;39.8;22
79467;SHT30;68933;49.726;9.226;2023-07-08T13:12:06;39.8;22
79467;SHT30;68933;49.726;9.226;2023-07-08T13:14:12;40.1;22
79467;SHT30;68933;49.726;9.226;2023-07-08T13:16:27;40.1;22
79467;SHT30;68933;49.726;9.226;2023-07-08T13:18:38;40.1;22
79467;SHT30;68933;49.726;9.226;2023-07-08T13:20:52;40.4;21
79467;SHT30;68933;49.726;9.226;2023-07-08T13:23:04;40.4;21
79467;SHT30;68933;49.726;9.226;2023-07-08T13:25:17;40.5;21
79467;SHT30;68933;49.726;9.226;2023-07-08T13:27:30;40.5;21
79467;SHT30;68933;49.726;9.226;2023-07-08T13:29:43;40.7;19
79467;SHT30;68933;49.726;9.226;2023-07-08T13:31:56;40.7;19
79467;SHT30;68933;49.726;9.226;2023-07-08T13:34:09;40.7;19
79467;SHT30;68933;49.726;9.226;2023-07-08T13:36:22;40.7;19
79467;SHT30;68933;49.726;9.226;2023-07-08T13:38:35;40.7;19
79467;SHT30;68933;49.726;9.226;2023-07-08T13:40:48;40.7;19
79467;SHT30;68933;49.726;9.226;2023-07-08T13:43:01;40.7;19
79467;SHT30;68933;49.726;9.226;2023-07-08T13:45:14;40.7;21
79467;SHT30;68933;49.726;9.226;2023-07-08T13:47:27;40.7;21
79467;SHT30;68933;49.726;9.226;2023-07-08T13:49:42;40.7;21
79467;SHT30;68933;49.726;9.226;2023-07-08T13:52:04;41;21
79467;SHT30;68933;49.726;9.226;2023-07-08T13:54:09;41;21
79467;SHT30;68933;49.726;9.226;2023-07-08T13:56:20;40.9;21
79467;SHT30;68933;49.726;9.226;2023-07-08T13:58:32;40.9;21
79467;SHT30;68933;49.726;9.226;2023-07-08T14:00:45;41;21
79467;SHT30;68933;49.726;9.226;2023-07-08T14:02:58;41;21
79467;SHT30;68933;49.726;9.226;2023-07-08T14:05:11;41;21
79467;SHT30;68933;49.726;9.226;2023-07-08T14:07:24;41.2;19
79467;SHT30;68933;49.726;9.226;2023-07-08T14:09:37;41.2;19
79467;SHT30;68933;49.726;9.226;2023-07-08T14:11:50;41.4;19
79467;SHT30;68933;49.726;9.226;2023-07-08T14:14:03;41.4;19
79467;SHT30;68933;49.726;9.226;2023-07-08T14:16:19;41.5;19
79467;SHT30;68933;49.726;9.226;2023-07-08T14:18:29;41.5;19
79467;SHT30;68933;49.726;9.226;2023-07-08T14:20:42;41.4;19
79467;SHT30;68933;49.726;9.226;2023-07-08T14:22:55;41.4;19
79467;SHT30;68933;49.726;9.226;2023-07-08T14:25:09;41.4;19
79467;SHT30;68933;49.726;9.226;2023-07-08T14:27:21;41.5;19
79467;SHT30;68933;49.726;9.226;2023-07-08T14:29:34;41.5;19
79467;SHT30;68933;49.726;9.226;2023-07-08T14:31:47;41.5;19
79467;SHT30;68933;49.726;9.226;2023-07-08T14:34:00;41.5;19
79467;SHT30;68933;49.726;9.226;2023-07-08T14:36:13;41.1;19
79467;SHT30;68933;49.726;9.226;2023-07-08T14:38:26;41.1;19
79467;SHT30;68933;49.726;9.226;2023-07-08T14:40:40;40.8;19
79467;SHT30;68933;49.726;9.226;2023-07-08T14:42:54;40.8;19
79467;SHT30;68933;49.726;9.226;2023-07-08T14:45:07;40.7;19
79467;SHT30;68933;49.726;9.226;2023-07-08T14:47:18;40.7;19
79467;SHT30;68933;49.726;9.226;2023-07-08T14:49:31;40.7;19
79467;SHT30;68933;49.726;9.226;2023-07-08T14:51:44;40.9;19
79467;SHT30;68933;49.726;9.226;2023-07-08T14:53:57;40.9;19
79467;SHT30;68933;49.726;9.226;2023-07-08T14:56:12;40.7;19
79467;SHT30;68933;49.726;9.226;2023-07-08T14:58:23;40.7;19
79467;SHT30;68933;49.726;9.226;2023-07-08T15:00:36;40.7;19